sensor_id;sensor_type;location;lat;lon;timestamp;temperature;humidity
15259;DHT22;34462;51.368;12.364;2022-09-09T00:00:13;14.90;99.90
15259;DHT22;34462;51.368;12.364;2022-09-09T00:02:46;14.80;99.90
15259;DHT22;34462;51.368;12.364;2022-09-09T00:05:28;14.80;99.90
15259;DHT22;34462;51.368;12.364;2022-09-09T00:08:07;14.80;99.90
15259;DHT22;34462;51.368;12.364;2022-09-09T00:10:50;14.80;99.90
15259;DHT22;34462;51.368;12.364;2022-09-09T00:13:31;14.80;99.90
15259;DHT22;34462;51.368;12.364;2022-09-09T00:16:10;14.70;99.90
15259;DHT22;34462;51.368;12.364;2022-09-09T00:18:53;14.80;99.90
15259;DHT22;34462;51.368;12.364;2022-09-09T00:21:33;14.70;99.90
15259;DHT22;34462;51.368;12.364;2022-09-09T00:24:10;14.70;99.90
15259;DHT22;34462;51.368;12.364;2022-09-09T00:26:59;14.70;99.90
15259;DHT22;34462;51.368;12.364;2022-09-09T00:29:39;14.70;99.90
15259;DHT22;34462;51.368;12.364;2022-09-09T00:32:13;14.60;99.90
15259;DHT22;34462;51.368;12.364;2022-09-09T00:34:48;14.60;99.90
15259;DHT22;34462;51.368;12.364;2022-09-09T00:37:19;14.60;99.90
15259;DHT22;34462;51.368;12.364;2022-09-09T00:39:51;14.60;99.90
15259;DHT22;34462;51.368;12.364;2022-09-09T00:42:25;14.60;99.90
15259;DHT22;34462;51.368;12.364;2022-09-09T00:45:15;14.60;99.90
15259;DHT22;34462;51.368;12.364;2022-09-09T00:48:07;14.60;99.90
15259;DHT22;34462;51.368;12.364;2022-09-09T00:50:46;14.60;99.90
15259;DHT22;34462;51.368;12.364;2022-09-09T00:53:30;14.60;99.90
15259;DHT22;34462;51.368;12.364;2022-09-09T00:56:12;14.60;99.90
15259;DHT22;34462;51.368;12.364;2022-09-09T00:58:51;14.60;99.90
15259;DHT22;34462;51.368;12.364;2022-09-09T01:01:32;14.50;99.90
15259;DHT22;34462;51.368;12.364;2022-09-09T01:04:00;14.50;99.90
15259;DHT22;34462;51.368;12.364;2022-09-09T01:06:34;14.50;99.90
15259;DHT22;34462;51.368;12.364;2022-09-09T01:09:11;14.50;99.90
15259;DHT22;34462;51.368;12.364;2022-09-09T01:11:57;14.60;99.90
15259;DHT22;34462;51.368;12.364;2022-09-09T01:14:38;14.60;99.90
15259;DHT22;34462;51.368;12.364;2022-09-09T01:17:15;14.60;99.90
15259;DHT22;34462;51.368;12.364;2022-09-09T01:19:55;14.60;99.90
15259;DHT22;34462;51.368;12.364;2022-09-09T01:22:35;14.60;99.90
15259;DHT22;34462;51.368;12.364;2022-09-09T01:25:20;14.60;99.90
15259;DHT22;34462;51.368;12.364;2022-09-09T01:27:57;14.50;99.90
15259;DHT22;34462;51.368;12.364;2022-09-09T01:30:28;14.60;99.90
15259;DHT22;34462;51.368;12.364;2022-09-09T01:32:58;14.60;99.90
15259;DHT22;34462;51.368;12.364;2022-09-09T01:35:41;14.60;99.90
15259;DHT22;34462;51.368;12.364;2022-09-09T01:38:14;14.60;99.90
15259;DHT22;34462;51.368;12.364;2022-09-09T01:40:43;14.60;99.90
15259;DHT22;34462;51.368;12.364;2022-09-09T01:43:13;14.60;99.90
15259;DHT22;34462;51.368;12.364;2022-09-09T01:45:42;14.60;99.90
15259;DHT22;34462;51.368;12.364;2022-09-09T01:48:14;14.60;99.90
15259;DHT22;34462;51.368;12.364;2022-09-09T01:50:42;14.70;99.90
15259;DHT22;34462;51.368;12.364;2022-09-09T01:53:11;14.60;99.90
15259;DHT22;34462;51.368;12.364;2022-09-09T01:55:49;14.60;99.90
15259;DHT22;34462;51.368;12.364;2022-09-09T01:58:32;14.70;99.90
15259;DHT22;34462;51.368;12.364;2022-09-09T02:01:14;14.70;99.90
15259;DHT22;34462;51.368;12.364;2022-09-09T02:03:53;14.60;99.90
15259;DHT22;34462;51.368;12.364;2022-09-09T02:06:28;14.60;99.90
15259;DHT22;34462;51.368;12.364;2022-09-09T02:09:04;14.70;99.90
15259;DHT22;34462;51.368;12.364;2022-09-09T02:11:34;14.70;99.90
15259;DHT22;34462;51.368;12.364;2022-09-09T02:14:08;14.70;99.90
15259;DHT22;34462;51.368;12.364;2022-09-09T02:16:44;14.70;99.90
15259;DHT22;34462;51.368;12.364;2022-09-09T02:19:22;14.60;99.90
15259;DHT22;34462;51.368;12.364;2022-09-09T02:21:55;14.60;99.90
15259;DHT22;34462;51.368;12.364;2022-09-09T02:24:27;14.60;99.90
15259;DHT22;34462;51.368;12.364;2022-09-09T02:27:02;14.50;99.90
15259;DHT22;34462;51.368;12.364;2022-09-09T02:29:38;14.50;99.90
15259;DHT22;34462;51.368;12.364;2022-09-09T02:32:11;14.50;99.90
15259;DHT22;34462;51.368;12.364;2022-09-09T02:34:43;14.50;99.90
15259;DHT22;34462;51.368;12.364;2022-09-09T02:37:17;14.40;99.90
15259;DHT22;34462;51.368;12.364;2022-09-09T02:39:47;14.50;99.90
15259;DHT22;34462;51.368;12.364;2022-09-09T02:42:16;14.50;99.90
15259;DHT22;34462;51.368;12.364;2022-09-09T02:44:47;14.60;99.90
15259;DHT22;34462;51.368;12.364;2022-09-09T02:47:25;14.50;99.90
15259;DHT22;34462;51.368;12.364;2022-09-09T02:50:04;14.50;99.90
15259;DHT22;34462;51.368;12.364;2022-09-09T02:52:47;14.50;99.90
15259;DHT22;34462;51.368;12.364;2022-09-09T02:55:32;14.50;99.90
15259;DHT22;34462;51.368;12.364;2022-09-09T02:58:08;14.50;99.90
15259;DHT22;34462;51.368;12.364;2022-09-09T03:00:40;14.40;99.90
15259;DHT22;34462;51.368;12.364;2022-09-09T03:03:09;14.40;99.90
15259;DHT22;34462;51.368;12.364;2022-09-09T03:05:37;14.40;99.90
15259;DHT22;34462;51.368;12.364;2022-09-09T03:08:05;14.40;99.90
15259;DHT22;34462;51.368;12.364;2022-09-09T03:10:34;14.40;99.90
15259;DHT22;34462;51.368;12.364;2022-09-09T03:13:03;14.40;99.90
15259;DHT22;34462;51.368;12.364;2022-09-09T03:15:32;14.30;99.90
15259;DHT22;34462;51.368;12.364;2022-09-09T03:18:02;14.30;99.90
15259;DHT22;34462;51.368;12.364;2022-09-09T03:20:31;14.30;99.90
15259;DHT22;34462;51.368;12.364;2022-09-09T03:22:59;14.30;99.90
15259;DHT22;34462;51.368;12.364;2022-09-09T03:25:29;14.30;99.90
15259;DHT22;34462;51.368;12.364;2022-09-09T03:27:58;14.30;99.90
15259;DHT22;34462;51.368;12.364;2022-09-09T03:30:27;14.30;99.90
15259;DHT22;34462;51.368;12.364;2022-09-09T03:32:56;14.20;99.90
15259;DHT22;34462;51.368;12.364;2022-09-09T03:35:25;14.20;99.90
15259;DHT22;34462;51.368;12.364;2022-09-09T03:37:53;14.30;99.90
15259;DHT22;34462;51.368;12.364;2022-09-09T03:40:21;14.30;99.90
15259;DHT22;34462;51.368;12.364;2022-09-09T03:42:49;14.30;99.90
15259;DHT22;34462;51.368;12.364;2022-09-09T03:45:18;14.30;99.90
15259;DHT22;34462;51.368;12.364;2022-09-09T03:47:46;14.20;99.90
15259;DHT22;34462;51.368;12.364;2022-09-09T03:50:14;14.20;99.90
15259;DHT22;34462;51.368;12.364;2022-09-09T03:52:43;14.20;99.90
15259;DHT22;34462;51.368;12.364;2022-09-09T03:55:12;14.20;99.90
15259;DHT22;34462;51.368;12.364;2022-09-09T03:57:40;14.30;99.90
15259;DHT22;34462;51.368;12.364;2022-09-09T04:00:10;14.30;99.90
15259;DHT22;34462;51.368;12.364;2022-09-09T04:02:38;14.30;99.90
15259;DHT22;34462;51.368;12.364;2022-09-09T04:05:07;14.40;99.90
15259;DHT22;34462;51.368;12.364;2022-09-09T04:07:35;14.30;99.90
15259;DHT22;34462;51.368;12.364;2022-09-09T04:10:06;14.20;99.90
15259;DHT22;34462;51.368;12.364;2022-09-09T04:12:36;14.20;99.90
15259;DHT22;34462;51.368;12.364;2022-09-09T04:15:04;14.20;99.90
15259;DHT22;34462;51.368;12.364;2022-09-09T04:17:33;14.30;99.90
15259;DHT22;34462;51.368;12.364;2022-09-09T04:20:03;14.30;99.90
15259;DHT22;34462;51.368;12.364;2022-09-09T04:22:31;14.30;99.90
15259;DHT22;34462;51.368;12.364;2022-09-09T04:25:00;14.30;99.90
15259;DHT22;34462;51.368;12.364;2022-09-09T04:27:29;14.30;99.90
15259;DHT22;34462;51.368;12.364;2022-09-09T04:29:57;14.40;99.90
15259;DHT22;34462;51.368;12.364;2022-09-09T04:32:25;14.40;99.90
15259;DHT22;34462;51.368;12.364;2022-09-09T04:34:54;14.50;99.90
15259;DHT22;34462;51.368;12.364;2022-09-09T04:37:22;14.50;99.90
15259;DHT22;34462;51.368;12.364;2022-09-09T04:39:51;14.70;99.90
15259;DHT22;34462;51.368;12.364;2022-09-09T04:42:19;14.70;99.90
15259;DHT22;34462;51.368;12.364;2022-09-09T04:44:48;14.80;99.90
15259;DHT22;34462;51.368;12.364;2022-09-09T04:47:16;14.80;99.90
15259;DHT22;34462;51.368;12.364;2022-09-09T04:49:44;14.90;99.90
15259;DHT22;34462;51.368;12.364;2022-09-09T04:52:13;15.00;99.90
15259;DHT22;34462;51.368;12.364;2022-09-09T04:54:44;15.10;99.90
15259;DHT22;34462;51.368;12.364;2022-09-09T04:57:12;15.00;99.90
15259;DHT22;34462;51.368;12.364;2022-09-09T04:59:44;14.90;99.90
15259;DHT22;34462;51.368;12.364;2022-09-09T05:02:13;15.00;99.90
15259;DHT22;34462;51.368;12.364;2022-09-09T05:04:42;14.90;99.90
15259;DHT22;34462;51.368;12.364;2022-09-09T05:07:10;14.90;99.90
15259;DHT22;34462;51.368;12.364;2022-09-09T05:09:38;14.90;99.90
15259;DHT22;34462;51.368;12.364;2022-09-09T05:12:06;14.90;99.90
15259;DHT22;34462;51.368;12.364;2022-09-09T05:14:34;15.00;99.90
15259;DHT22;34462;51.368;12.364;2022-09-09T05:17:04;15.00;99.90
15259;DHT22;34462;51.368;12.364;2022-09-09T05:19:33;15.10;99.90
15259;DHT22;34462;51.368;12.364;2022-09-09T05:22:02;15.20;99.90
15259;DHT22;34462;51.368;12.364;2022-09-09T05:24:30;15.30;99.90
15259;DHT22;34462;51.368;12.364;2022-09-09T05:26:59;15.30;99.90
15259;DHT22;34462;51.368;12.364;2022-09-09T05:29:28;15.40;99.90
15259;DHT22;34462;51.368;12.364;2022-09-09T05:31:58;15.40;99.90
15259;DHT22;34462;51.368;12.364;2022-09-09T05:34:26;15.50;99.90
15259;DHT22;34462;51.368;12.364;2022-09-09T05:36:56;15.50;99.90
15259;DHT22;34462;51.368;12.364;2022-09-09T05:39:24;15.60;99.90
15259;DHT22;34462;51.368;12.364;2022-09-09T05:41:52;15.60;99.90
15259;DHT22;34462;51.368;12.364;2022-09-09T05:44:22;15.70;99.90
15259;DHT22;34462;51.368;12.364;2022-09-09T05:46:54;15.70;99.90
15259;DHT22;34462;51.368;12.364;2022-09-09T05:49:22;15.70;99.90
15259;DHT22;34462;51.368;12.364;2022-09-09T05:51:50;15.80;99.90
15259;DHT22;34462;51.368;12.364;2022-09-09T05:54:20;15.90;99.90
15259;DHT22;34462;51.368;12.364;2022-09-09T05:56:48;16.00;99.90
15259;DHT22;34462;51.368;12.364;2022-09-09T05:59:17;16.00;99.90
15259;DHT22;34462;51.368;12.364;2022-09-09T06:01:45;16.10;99.90
15259;DHT22;34462;51.368;12.364;2022-09-09T06:04:14;16.20;99.90
15259;DHT22;34462;51.368;12.364;2022-09-09T06:06:42;16.30;99.90
15259;DHT22;34462;51.368;12.364;2022-09-09T06:09:10;16.40;99.90
15259;DHT22;34462;51.368;12.364;2022-09-09T06:11:40;16.40;99.90
15259;DHT22;34462;51.368;12.364;2022-09-09T06:14:08;16.60;99.90
15259;DHT22;34462;51.368;12.364;2022-09-09T06:16:36;16.60;99.90
15259;DHT22;34462;51.368;12.364;2022-09-09T06:19:05;16.70;99.90
15259;DHT22;34462;51.368;12.364;2022-09-09T06:21:34;16.70;99.90
15259;DHT22;34462;51.368;12.364;2022-09-09T06:24:05;16.90;99.90
15259;DHT22;34462;51.368;12.364;2022-09-09T06:26:35;16.90;99.90
15259;DHT22;34462;51.368;12.364;2022-09-09T06:29:09;16.90;99.90
15259;DHT22;34462;51.368;12.364;2022-09-09T06:31:37;17.00;99.90
15259;DHT22;34462;51.368;12.364;2022-09-09T06:34:07;17.00;99.90
15259;DHT22;34462;51.368;12.364;2022-09-09T06:36:37;17.10;99.90
15259;DHT22;34462;51.368;12.364;2022-09-09T06:39:07;17.20;99.90
15259;DHT22;34462;51.368;12.364;2022-09-09T06:41:41;17.30;99.90
15259;DHT22;34462;51.368;12.364;2022-09-09T06:44:11;17.30;99.90
15259;DHT22;34462;51.368;12.364;2022-09-09T06:46:39;17.40;99.90
15259;DHT22;34462;51.368;12.364;2022-09-09T06:49:08;17.40;99.90
15259;DHT22;34462;51.368;12.364;2022-09-09T06:51:37;17.50;99.90
15259;DHT22;34462;51.368;12.364;2022-09-09T06:54:11;17.50;99.90
15259;DHT22;34462;51.368;12.364;2022-09-09T06:56:41;17.50;99.90
15259;DHT22;34462;51.368;12.364;2022-09-09T06:59:12;17.60;99.90
15259;DHT22;34462;51.368;12.364;2022-09-09T07:01:42;17.70;99.90
15259;DHT22;34462;51.368;12.364;2022-09-09T07:04:11;17.80;99.90
15259;DHT22;34462;51.368;12.364;2022-09-09T07:06:42;17.90;99.90
15259;DHT22;34462;51.368;12.364;2022-09-09T07:09:13;18.10;99.90
15259;DHT22;34462;51.368;12.364;2022-09-09T07:11:43;18.20;99.90
15259;DHT22;34462;51.368;12.364;2022-09-09T07:14:14;18.40;99.90
15259;DHT22;34462;51.368;12.364;2022-09-09T07:16:44;18.50;99.90
15259;DHT22;34462;51.368;12.364;2022-09-09T07:19:13;18.60;99.90
15259;DHT22;34462;51.368;12.364;2022-09-09T07:21:42;18.60;99.90
15259;DHT22;34462;51.368;12.364;2022-09-09T07:24:11;18.80;99.90
15259;DHT22;34462;51.368;12.364;2022-09-09T07:26:40;19.00;99.90
15259;DHT22;34462;51.368;12.364;2022-09-09T07:29:08;19.10;99.90
15259;DHT22;34462;51.368;12.364;2022-09-09T07:31:47;19.20;99.90
15259;DHT22;34462;51.368;12.364;2022-09-09T07:34:15;19.30;99.90
15259;DHT22;34462;51.368;12.364;2022-09-09T07:36:43;19.30;99.90
15259;DHT22;34462;51.368;12.364;2022-09-09T07:39:13;19.20;99.90
15259;DHT22;34462;51.368;12.364;2022-09-09T07:41:45;19.10;99.90
15259;DHT22;34462;51.368;12.364;2022-09-09T07:44:15;19.10;99.90
15259;DHT22;34462;51.368;12.364;2022-09-09T07:46:49;19.10;99.90
15259;DHT22;34462;51.368;12.364;2022-09-09T07:49:17;19.00;99.90
15259;DHT22;34462;51.368;12.364;2022-09-09T07:51:54;19.00;99.90
15259;DHT22;34462;51.368;12.364;2022-09-09T07:54:22;18.90;99.90
15259;DHT22;34462;51.368;12.364;2022-09-09T07:56:50;18.90;99.90
15259;DHT22;34462;51.368;12.364;2022-09-09T07:59:19;19.00;99.90
15259;DHT22;34462;51.368;12.364;2022-09-09T08:01:50;19.10;99.90
15259;DHT22;34462;51.368;12.364;2022-09-09T08:04:21;19.20;99.90
15259;DHT22;34462;51.368;12.364;2022-09-09T08:06:53;19.20;99.90
15259;DHT22;34462;51.368;12.364;2022-09-09T08:09:24;19.30;99.90
15259;DHT22;34462;51.368;12.364;2022-09-09T08:11:56;19.40;99.90
15259;DHT22;34462;51.368;12.364;2022-09-09T08:14:25;19.60;99.90
15259;DHT22;34462;51.368;12.364;2022-09-09T08:16:54;19.80;99.90
15259;DHT22;34462;51.368;12.364;2022-09-09T08:19:23;20.00;99.90
15259;DHT22;34462;51.368;12.364;2022-09-09T08:21:51;20.20;99.90
15259;DHT22;34462;51.368;12.364;2022-09-09T08:24:20;20.40;99.90
15259;DHT22;34462;51.368;12.364;2022-09-09T08:26:49;20.30;99.90
15259;DHT22;34462;51.368;12.364;2022-09-09T08:29:18;20.40;99.90
15259;DHT22;34462;51.368;12.364;2022-09-09T08:31:48;20.40;99.90
15259;DHT22;34462;51.368;12.364;2022-09-09T08:34:18;20.40;99.90
15259;DHT22;34462;51.368;12.364;2022-09-09T08:36:48;20.40;99.90
15259;DHT22;34462;51.368;12.364;2022-09-09T08:39:19;20.50;99.90
15259;DHT22;34462;51.368;12.364;2022-09-09T08:42:01;20.60;99.90
15259;DHT22;34462;51.368;12.364;2022-09-09T08:44:52;20.60;99.90
15259;DHT22;34462;51.368;12.364;2022-09-09T08:47:35;20.70;99.90
15259;DHT22;34462;51.368;12.364;2022-09-09T08:50:19;20.60;99.90
15259;DHT22;34462;51.368;12.364;2022-09-09T08:52:59;20.50;99.90
15259;DHT22;34462;51.368;12.364;2022-09-09T08:55:37;20.50;99.90
15259;DHT22;34462;51.368;12.364;2022-09-09T08:58:13;20.70;99.90
15259;DHT22;34462;51.368;12.364;2022-09-09T09:01:00;20.70;99.90
15259;DHT22;34462;51.368;12.364;2022-09-09T09:03:43;20.70;99.90
15259;DHT22;34462;51.368;12.364;2022-09-09T09:06:30;20.70;99.90
15259;DHT22;34462;51.368;12.364;2022-09-09T09:09:14;20.70;99.90
15259;DHT22;34462;51.368;12.364;2022-09-09T09:11:51;20.80;99.90
15259;DHT22;34462;51.368;12.364;2022-09-09T09:14:24;20.80;99.90
15259;DHT22;34462;51.368;12.364;2022-09-09T09:16:59;20.80;99.90
15259;DHT22;34462;51.368;12.364;2022-09-09T09:19:32;20.90;99.90
15259;DHT22;34462;51.368;12.364;2022-09-09T09:22:10;21.00;99.90
15259;DHT22;34462;51.368;12.364;2022-09-09T09:24:50;21.00;99.90
15259;DHT22;34462;51.368;12.364;2022-09-09T09:27:32;21.10;99.90
15259;DHT22;34462;51.368;12.364;2022-09-09T09:30:13;21.10;99.90
15259;DHT22;34462;51.368;12.364;2022-09-09T09:32:57;21.20;99.90
15259;DHT22;34462;51.368;12.364;2022-09-09T09:35:28;21.20;99.90
15259;DHT22;34462;51.368;12.364;2022-09-09T09:37:59;21.40;99.90
15259;DHT22;34462;51.368;12.364;2022-09-09T09:40:49;21.50;99.90
15259;DHT22;34462;51.368;12.364;2022-09-09T09:43:26;21.80;99.90
15259;DHT22;34462;51.368;12.364;2022-09-09T09:45:57;22.00;99.90
15259;DHT22;34462;51.368;12.364;2022-09-09T09:48:43;22.10;99.90
15259;DHT22;34462;51.368;12.364;2022-09-09T09:51:15;22.00;99.90
15259;DHT22;34462;51.368;12.364;2022-09-09T09:53:47;21.90;99.90
15259;DHT22;34462;51.368;12.364;2022-09-09T09:56:16;22.00;99.90
15259;DHT22;34462;51.368;12.364;2022-09-09T09:58:50;22.20;99.90
15259;DHT22;34462;51.368;12.364;2022-09-09T10:01:21;22.40;99.90
15259;DHT22;34462;51.368;12.364;2022-09-09T10:03:53;22.50;99.90
15259;DHT22;34462;51.368;12.364;2022-09-09T10:06:32;22.50;99.90
15259;DHT22;34462;51.368;12.364;2022-09-09T10:09:03;22.20;99.90
15259;DHT22;34462;51.368;12.364;2022-09-09T10:11:52;22.10;99.90
15259;DHT22;34462;51.368;12.364;2022-09-09T10:14:32;22.20;99.90
15259;DHT22;34462;51.368;12.364;2022-09-09T10:17:16;22.60;99.90
15259;DHT22;34462;51.368;12.364;2022-09-09T10:20:06;23.00;99.90
15259;DHT22;34462;51.368;12.364;2022-09-09T10:22:51;23.10;99.90
15259;DHT22;34462;51.368;12.364;2022-09-09T10:25:43;22.90;99.90
15259;DHT22;34462;51.368;12.364;2022-09-09T10:28:36;22.80;99.90
15259;DHT22;34462;51.368;12.364;2022-09-09T10:31:27;22.60;99.90
15259;DHT22;34462;51.368;12.364;2022-09-09T10:34:17;22.60;99.90
15259;DHT22;34462;51.368;12.364;2022-09-09T10:37:14;22.50;99.90
15259;DHT22;34462;51.368;12.364;2022-09-09T10:40:02;22.50;99.90
15259;DHT22;34462;51.368;12.364;2022-09-09T10:42:45;22.40;99.90
15259;DHT22;34462;51.368;12.364;2022-09-09T10:45:18;22.20;99.90
15259;DHT22;34462;51.368;12.364;2022-09-09T10:48:05;22.00;99.90
15259;DHT22;34462;51.368;12.364;2022-09-09T10:50:54;21.80;99.90
15259;DHT22;34462;51.368;12.364;2022-09-09T10:53:36;21.80;99.90
15259;DHT22;34462;51.368;12.364;2022-09-09T10:56:15;21.90;99.90
15259;DHT22;34462;51.368;12.364;2022-09-09T10:58:51;22.10;99.90
15259;DHT22;34462;51.368;12.364;2022-09-09T11:01:27;22.10;99.90
15259;DHT22;34462;51.368;12.364;2022-09-09T11:04:04;22.30;99.90
15259;DHT22;34462;51.368;12.364;2022-09-09T11:06:42;22.50;99.90
15259;DHT22;34462;51.368;12.364;2022-09-09T11:09:16;22.70;99.90
15259;DHT22;34462;51.368;12.364;2022-09-09T11:11:52;22.60;99.90
15259;DHT22;34462;51.368;12.364;2022-09-09T11:14:28;22.40;99.90
15259;DHT22;34462;51.368;12.364;2022-09-09T11:17:06;22.30;99.90
15259;DHT22;34462;51.368;12.364;2022-09-09T11:19:40;22.30;99.90
15259;DHT22;34462;51.368;12.364;2022-09-09T11:22:17;22.20;99.90
15259;DHT22;34462;51.368;12.364;2022-09-09T11:24:54;22.00;99.90
15259;DHT22;34462;51.368;12.364;2022-09-09T11:27:30;22.00;99.90
15259;DHT22;34462;51.368;12.364;2022-09-09T11:30:20;22.20;99.90
15259;DHT22;34462;51.368;12.364;2022-09-09T11:33:41;22.40;99.90
15259;DHT22;34462;51.368;12.364;2022-09-09T11:36:39;22.80;99.90
15259;DHT22;34462;51.368;12.364;2022-09-09T11:39:35;23.10;99.90
15259;DHT22;34462;51.368;12.364;2022-09-09T11:42:17;23.50;99.90
15259;DHT22;34462;51.368;12.364;2022-09-09T11:44:47;23.80;99.90
15259;DHT22;34462;51.368;12.364;2022-09-09T11:47:20;24.00;99.90
15259;DHT22;34462;51.368;12.364;2022-09-09T11:50:07;24.20;99.90
15259;DHT22;34462;51.368;12.364;2022-09-09T11:53:05;24.10;99.90
15259;DHT22;34462;51.368;12.364;2022-09-09T11:56:03;24.00;99.90
15259;DHT22;34462;51.368;12.364;2022-09-09T11:58:40;23.70;99.90
15259;DHT22;34462;51.368;12.364;2022-09-09T12:01:35;23.70;99.90
15259;DHT22;34462;51.368;12.364;2022-09-09T12:07:25;23.60;99.90
15259;DHT22;34462;51.368;12.364;2022-09-09T12:10:03;23.60;99.90
15259;DHT22;34462;51.368;12.364;2022-09-09T12:12:35;23.60;99.90
15259;DHT22;34462;51.368;12.364;2022-09-09T12:15:25;23.50;99.90
15259;DHT22;34462;51.368;12.364;2022-09-09T12:17:57;23.50;99.90
15259;DHT22;34462;51.368;12.364;2022-09-09T12:20:34;23.50;99.90
15259;DHT22;34462;51.368;12.364;2022-09-09T12:23:30;23.60;99.90
15259;DHT22;34462;51.368;12.364;2022-09-09T12:26:30;23.70;99.90
15259;DHT22;34462;51.368;12.364;2022-09-09T12:29:15;23.80;99.90
15259;DHT22;34462;51.368;12.364;2022-09-09T12:31:58;23.80;99.90
15259;DHT22;34462;51.368;12.364;2022-09-09T12:34:36;23.80;99.90
15259;DHT22;34462;51.368;12.364;2022-09-09T12:37:16;23.80;99.90
15259;DHT22;34462;51.368;12.364;2022-09-09T12:39:53;23.80;99.90
15259;DHT22;34462;51.368;12.364;2022-09-09T12:42:24;23.70;99.90
15259;DHT22;34462;51.368;12.364;2022-09-09T12:44:54;23.70;99.90
15259;DHT22;34462;51.368;12.364;2022-09-09T12:47:37;23.70;99.90
15259;DHT22;34462;51.368;12.364;2022-09-09T12:50:17;23.80;99.90
15259;DHT22;34462;51.368;12.364;2022-09-09T12:52:51;23.80;99.90
15259;DHT22;34462;51.368;12.364;2022-09-09T12:55:25;23.70;99.90
15259;DHT22;34462;51.368;12.364;2022-09-09T12:57:57;23.80;99.90
15259;DHT22;34462;51.368;12.364;2022-09-09T13:00:27;23.80;99.90
15259;DHT22;34462;51.368;12.364;2022-09-09T13:02:58;23.70;99.90
15259;DHT22;34462;51.368;12.364;2022-09-09T13:05:34;23.50;99.90
15259;DHT22;34462;51.368;12.364;2022-09-09T13:08:08;23.80;99.90
15259;DHT22;34462;51.368;12.364;2022-09-09T13:10:43;23.90;99.90
15259;DHT22;34462;51.368;12.364;2022-09-09T13:13:23;24.10;99.90
15259;DHT22;34462;51.368;12.364;2022-09-09T13:15:57;24.00;99.90
15259;DHT22;34462;51.368;12.364;2022-09-09T13:18:29;23.80;99.90
15259;DHT22;34462;51.368;12.364;2022-09-09T13:21:00;23.80;99.90
15259;DHT22;34462;51.368;12.364;2022-09-09T13:23:32;23.70;99.90
15259;DHT22;34462;51.368;12.364;2022-09-09T13:26:03;23.40;99.90
15259;DHT22;34462;51.368;12.364;2022-09-09T13:28:34;23.10;99.90
15259;DHT22;34462;51.368;12.364;2022-09-09T13:31:04;22.80;99.90
15259;DHT22;34462;51.368;12.364;2022-09-09T13:33:35;22.60;99.90
15259;DHT22;34462;51.368;12.364;2022-09-09T13:36:06;22.50;99.90
15259;DHT22;34462;51.368;12.364;2022-09-09T13:38:38;22.50;99.90
15259;DHT22;34462;51.368;12.364;2022-09-09T13:41:21;22.50;99.90
15259;DHT22;34462;51.368;12.364;2022-09-09T13:43:51;22.40;99.90
15259;DHT22;34462;51.368;12.364;2022-09-09T13:46:26;22.50;99.90
15259;DHT22;34462;51.368;12.364;2022-09-09T13:49:00;22.40;99.90
15259;DHT22;34462;51.368;12.364;2022-09-09T13:51:33;22.50;99.90
15259;DHT22;34462;51.368;12.364;2022-09-09T13:54:06;22.60;99.90
15259;DHT22;34462;51.368;12.364;2022-09-09T13:56:38;22.60;99.90
15259;DHT22;34462;51.368;12.364;2022-09-09T13:59:12;22.60;99.90
15259;DHT22;34462;51.368;12.364;2022-09-09T14:01:42;22.50;99.90
15259;DHT22;34462;51.368;12.364;2022-09-09T14:04:11;22.50;99.90
15259;DHT22;34462;51.368;12.364;2022-09-09T14:06:39;22.40;99.90
15259;DHT22;34462;51.368;12.364;2022-09-09T14:09:11;22.40;99.90
15259;DHT22;34462;51.368;12.364;2022-09-09T14:11:42;22.30;99.90
15259;DHT22;34462;51.368;12.364;2022-09-09T14:14:11;22.20;99.90
15259;DHT22;34462;51.368;12.364;2022-09-09T14:16:40;22.10;99.90
15259;DHT22;34462;51.368;12.364;2022-09-09T14:19:08;22.00;99.90
15259;DHT22;34462;51.368;12.364;2022-09-09T14:21:36;22.00;99.90
15259;DHT22;34462;51.368;12.364;2022-09-09T14:24:05;22.10;99.90
15259;DHT22;34462;51.368;12.364;2022-09-09T14:26:34;22.10;99.90
15259;DHT22;34462;51.368;12.364;2022-09-09T14:29:03;22.00;99.90
15259;DHT22;34462;51.368;12.364;2022-09-09T14:31:31;22.00;99.90
15259;DHT22;34462;51.368;12.364;2022-09-09T14:33:59;22.00;99.90
15259;DHT22;34462;51.368;12.364;2022-09-09T14:36:27;22.00;99.90
15259;DHT22;34462;51.368;12.364;2022-09-09T14:38:55;22.00;99.90
15259;DHT22;34462;51.368;12.364;2022-09-09T14:41:24;22.10;99.90
15259;DHT22;34462;51.368;12.364;2022-09-09T14:43:53;22.10;99.90
15259;DHT22;34462;51.368;12.364;2022-09-09T14:46:22;22.20;99.90
15259;DHT22;34462;51.368;12.364;2022-09-09T14:48:50;22.10;99.90
15259;DHT22;34462;51.368;12.364;2022-09-09T14:51:21;22.00;99.90
15259;DHT22;34462;51.368;12.364;2022-09-09T14:53:52;21.90;99.90
15259;DHT22;34462;51.368;12.364;2022-09-09T14:56:23;21.90;99.90
15259;DHT22;34462;51.368;12.364;2022-09-09T14:58:55;22.00;99.90
15259;DHT22;34462;51.368;12.364;2022-09-09T15:01:25;22.00;99.90
15259;DHT22;34462;51.368;12.364;2022-09-09T15:03:55;22.00;99.90
15259;DHT22;34462;51.368;12.364;2022-09-09T15:06:26;22.20;99.90
15259;DHT22;34462;51.368;12.364;2022-09-09T15:08:57;22.50;99.90
15259;DHT22;34462;51.368;12.364;2022-09-09T15:11:27;22.80;99.90
15259;DHT22;34462;51.368;12.364;2022-09-09T15:13:58;23.00;99.90
15259;DHT22;34462;51.368;12.364;2022-09-09T15:16:27;23.10;99.90
15259;DHT22;34462;51.368;12.364;2022-09-09T15:18:57;23.20;99.90
15259;DHT22;34462;51.368;12.364;2022-09-09T15:21:28;23.20;99.90
15259;DHT22;34462;51.368;12.364;2022-09-09T15:23:58;23.10;99.90
15259;DHT22;34462;51.368;12.364;2022-09-09T15:26:27;23.00;99.90
15259;DHT22;34462;51.368;12.364;2022-09-09T15:28:58;22.80;99.90
15259;DHT22;34462;51.368;12.364;2022-09-09T15:31:28;22.50;99.90
15259;DHT22;34462;51.368;12.364;2022-09-09T15:34:00;22.50;99.90
15259;DHT22;34462;51.368;12.364;2022-09-09T15:36:30;22.40;99.90
15259;DHT22;34462;51.368;12.364;2022-09-09T15:39:00;22.40;99.90
15259;DHT22;34462;51.368;12.364;2022-09-09T15:41:30;22.30;99.90
15259;DHT22;34462;51.368;12.364;2022-09-09T15:44:01;22.20;99.90
15259;DHT22;34462;51.368;12.364;2022-09-09T15:46:31;22.10;99.90
15259;DHT22;34462;51.368;12.364;2022-09-09T15:49:05;22.00;99.90
15259;DHT22;34462;51.368;12.364;2022-09-09T15:51:36;21.90;99.90
15259;DHT22;34462;51.368;12.364;2022-09-09T15:54:10;21.90;99.90
15259;DHT22;34462;51.368;12.364;2022-09-09T15:56:40;21.80;99.90
15259;DHT22;34462;51.368;12.364;2022-09-09T15:59:10;21.80;99.90